sensor_id;sensor_type;location;lat;lon;timestamp;P1;durP1;ratioP1;P2;durP2;ratioP2
3487;SDS011;38546;48.170;11.724;2023-05-23T00:01:53;20.60;;;14.30;;
3487;SDS011;38546;48.170;11.724;2023-05-23T00:04:45;20.97;;;13.37;;
3487;SDS011;38546;48.170;11.724;2023-05-23T00:07:35;21.90;;;13.13;;
3487;SDS011;38546;48.170;11.724;2023-05-23T00:10:24;22.13;;;13.87;;
3487;SDS011;38546;48.170;11.724;2023-05-23T00:13:13;21.90;;;13.57;;
3487;SDS011;38546;48.170;11.724;2023-05-23T00:16:02;21.37;;;14.60;;
3487;SDS011;38546;48.170;11.724;2023-05-23T00:18:52;24.30;;;14.73;;
3487;SDS011;38546;48.170;11.724;2023-05-23T00:21:45;23.80;;;14.80;;
3487;SDS011;38546;48.170;11.724;2023-05-23T00:24:36;18.87;;;14.43;;
3487;SDS011;38546;48.170;11.724;2023-05-23T00:27:25;20.37;;;13.90;;
3487;SDS011;38546;48.170;11.724;2023-05-23T00:30:14;23.00;;;14.27;;
3487;SDS011;38546;48.170;11.724;2023-05-23T00:33:05;21.63;;;14.37;;
3487;SDS011;38546;48.170;11.724;2023-05-23T00:35:54;20.27;;;13.50;;
3487;SDS011;38546;48.170;11.724;2023-05-23T00:38:43;20.30;;;12.23;;
3487;SDS011;38546;48.170;11.724;2023-05-23T00:41:36;25.70;;;14.03;;
3487;SDS011;38546;48.170;11.724;2023-05-23T00:44:25;21.17;;;13.40;;
3487;SDS011;38546;48.170;11.724;2023-05-23T00:47:14;21.30;;;13.03;;
3487;SDS011;38546;48.170;11.724;2023-05-23T00:50:05;18.37;;;12.50;;
3487;SDS011;38546;48.170;11.724;2023-05-23T00:53:00;24.47;;;14.43;;
3487;SDS011;38546;48.170;11.724;2023-05-23T00:55:50;17.07;;;12.03;;
3487;SDS011;38546;48.170;11.724;2023-05-23T00:58:39;16.40;;;12.67;;
3487;SDS011;38546;48.170;11.724;2023-05-23T01:01:29;24.43;;;14.00;;
3487;SDS011;38546;48.170;11.724;2023-05-23T01:04:18;20.50;;;13.20;;
3487;SDS011;38546;48.170;11.724;2023-05-23T01:07:08;20.90;;;12.90;;
3487;SDS011;38546;48.170;11.724;2023-05-23T01:09:58;19.53;;;12.40;;
3487;SDS011;38546;48.170;11.724;2023-05-23T01:17:40;18.23;;;12.30;;
3487;SDS011;38546;48.170;11.724;2023-05-23T01:20:48;22.17;;;12.20;;
3487;SDS011;38546;48.170;11.724;2023-05-23T01:24:02;20.60;;;13.70;;
3487;SDS011;38546;48.170;11.724;2023-05-23T01:27:47;20.47;;;12.57;;
3487;SDS011;38546;48.170;11.724;2023-05-23T01:30:45;19.17;;;12.67;;
3487;SDS011;38546;48.170;11.724;2023-05-23T01:33:40;18.03;;;13.73;;
3487;SDS011;38546;48.170;11.724;2023-05-23T01:36:32;25.00;;;12.93;;
3487;SDS011;38546;48.170;11.724;2023-05-23T01:39:23;16.77;;;12.17;;
3487;SDS011;38546;48.170;11.724;2023-05-23T01:42:13;17.90;;;13.20;;
3487;SDS011;38546;48.170;11.724;2023-05-23T01:45:03;27.87;;;13.80;;
3487;SDS011;38546;48.170;11.724;2023-05-23T01:47:54;20.80;;;14.00;;
3487;SDS011;38546;48.170;11.724;2023-05-23T01:50:44;17.90;;;13.07;;
3487;SDS011;38546;48.170;11.724;2023-05-23T01:53:34;19.00;;;12.67;;
3487;SDS011;38546;48.170;11.724;2023-05-23T01:56:25;19.80;;;13.20;;
3487;SDS011;38546;48.170;11.724;2023-05-23T01:59:16;19.50;;;13.10;;
3487;SDS011;38546;48.170;11.724;2023-05-23T02:02:06;20.50;;;13.23;;
3487;SDS011;38546;48.170;11.724;2023-05-23T02:04:55;21.37;;;13.97;;
3487;SDS011;38546;48.170;11.724;2023-05-23T02:07:46;20.27;;;13.70;;
3487;SDS011;38546;48.170;11.724;2023-05-23T02:10:35;23.60;;;13.90;;
3487;SDS011;38546;48.170;11.724;2023-05-23T02:13:24;22.87;;;13.90;;
3487;SDS011;38546;48.170;11.724;2023-05-23T02:16:13;21.27;;;13.90;;
3487;SDS011;38546;48.170;11.724;2023-05-23T02:19:03;20.83;;;14.10;;
3487;SDS011;38546;48.170;11.724;2023-05-23T02:21:52;19.13;;;13.27;;
3487;SDS011;38546;48.170;11.724;2023-05-23T02:24:41;22.53;;;13.40;;
3487;SDS011;38546;48.170;11.724;2023-05-23T02:27:30;19.80;;;12.43;;
3487;SDS011;38546;48.170;11.724;2023-05-23T02:30:20;21.93;;;14.23;;
3487;SDS011;38546;48.170;11.724;2023-05-23T02:33:09;18.30;;;13.30;;
3487;SDS011;38546;48.170;11.724;2023-05-23T02:35:58;20.67;;;14.50;;
3487;SDS011;38546;48.170;11.724;2023-05-23T02:38:47;23.57;;;14.53;;
3487;SDS011;38546;48.170;11.724;2023-05-23T02:41:37;23.00;;;13.60;;
3487;SDS011;38546;48.170;11.724;2023-05-23T02:44:27;26.17;;;14.60;;
3487;SDS011;38546;48.170;11.724;2023-05-23T02:47:16;23.43;;;13.83;;
3487;SDS011;38546;48.170;11.724;2023-05-23T02:50:06;19.73;;;13.50;;
3487;SDS011;38546;48.170;11.724;2023-05-23T02:52:57;21.50;;;14.10;;
3487;SDS011;38546;48.170;11.724;2023-05-23T02:55:47;21.70;;;15.03;;
3487;SDS011;38546;48.170;11.724;2023-05-23T02:58:36;30.83;;;16.67;;
3487;SDS011;38546;48.170;11.724;2023-05-23T03:01:26;27.00;;;14.67;;
3487;SDS011;38546;48.170;11.724;2023-05-23T03:04:15;24.23;;;14.90;;
3487;SDS011;38546;48.170;11.724;2023-05-23T03:07:04;24.63;;;14.90;;
3487;SDS011;38546;48.170;11.724;2023-05-23T03:09:54;23.97;;;14.80;;
3487;SDS011;38546;48.170;11.724;2023-05-23T03:12:44;25.70;;;15.70;;
3487;SDS011;38546;48.170;11.724;2023-05-23T03:15:34;23.70;;;15.40;;
3487;SDS011;38546;48.170;11.724;2023-05-23T03:18:24;26.20;;;14.93;;
3487;SDS011;38546;48.170;11.724;2023-05-23T03:21:13;30.40;;;16.93;;
3487;SDS011;38546;48.170;11.724;2023-05-23T03:24:03;26.93;;;15.73;;
3487;SDS011;38546;48.170;11.724;2023-05-23T03:26:53;28.00;;;16.30;;
3487;SDS011;38546;48.170;11.724;2023-05-23T03:29:42;26.03;;;16.30;;
3487;SDS011;38546;48.170;11.724;2023-05-23T03:32:31;27.73;;;16.90;;
3487;SDS011;38546;48.170;11.724;2023-05-23T03:35:20;29.37;;;16.60;;
3487;SDS011;38546;48.170;11.724;2023-05-23T03:38:09;23.97;;;14.90;;
3487;SDS011;38546;48.170;11.724;2023-05-23T03:40:58;28.30;;;17.10;;
3487;SDS011;38546;48.170;11.724;2023-05-23T03:43:48;25.83;;;16.03;;
3487;SDS011;38546;48.170;11.724;2023-05-23T03:46:37;30.30;;;18.87;;
3487;SDS011;38546;48.170;11.724;2023-05-23T03:49:27;27.67;;;18.50;;
3487;SDS011;38546;48.170;11.724;2023-05-23T03:52:16;25.00;;;15.87;;
3487;SDS011;38546;48.170;11.724;2023-05-23T03:55:05;27.57;;;16.47;;
3487;SDS011;38546;48.170;11.724;2023-05-23T03:57:56;27.10;;;16.13;;
3487;SDS011;38546;48.170;11.724;2023-05-23T04:00:46;26.73;;;15.90;;
3487;SDS011;38546;48.170;11.724;2023-05-23T04:03:35;24.90;;;15.47;;
3487;SDS011;38546;48.170;11.724;2023-05-23T04:06:24;30.53;;;17.87;;
3487;SDS011;38546;48.170;11.724;2023-05-23T04:09:14;30.93;;;17.30;;
3487;SDS011;38546;48.170;11.724;2023-05-23T04:12:04;25.33;;;17.00;;
3487;SDS011;38546;48.170;11.724;2023-05-23T04:14:56;28.57;;;17.23;;
3487;SDS011;38546;48.170;11.724;2023-05-23T04:17:46;30.93;;;17.50;;
3487;SDS011;38546;48.170;11.724;2023-05-23T04:20:35;33.70;;;18.03;;
3487;SDS011;38546;48.170;11.724;2023-05-23T04:23:25;34.73;;;18.97;;
3487;SDS011;38546;48.170;11.724;2023-05-23T04:26:14;29.13;;;18.60;;
3487;SDS011;38546;48.170;11.724;2023-05-23T04:29:03;29.43;;;17.80;;
3487;SDS011;38546;48.170;11.724;2023-05-23T04:31:54;28.50;;;16.67;;
3487;SDS011;38546;48.170;11.724;2023-05-23T04:34:43;33.40;;;16.93;;
3487;SDS011;38546;48.170;11.724;2023-05-23T04:37:32;33.73;;;18.87;;
3487;SDS011;38546;48.170;11.724;2023-05-23T04:40:22;31.47;;;19.23;;
3487;SDS011;38546;48.170;11.724;2023-05-23T04:43:12;30.83;;;19.30;;
3487;SDS011;38546;48.170;11.724;2023-05-23T04:46:02;28.33;;;17.97;;
3487;SDS011;38546;48.170;11.724;2023-05-23T04:48:51;30.00;;;18.20;;
3487;SDS011;38546;48.170;11.724;2023-05-23T04:51:42;29.47;;;17.97;;
3487;SDS011;38546;48.170;11.724;2023-05-23T04:54:31;33.83;;;19.40;;
3487;SDS011;38546;48.170;11.724;2023-05-23T04:57:20;31.13;;;18.27;;
3487;SDS011;38546;48.170;11.724;2023-05-23T05:00:11;28.80;;;17.40;;
3487;SDS011;38546;48.170;11.724;2023-05-23T05:03:02;39.80;;;17.77;;
3487;SDS011;38546;48.170;11.724;2023-05-23T05:05:51;34.27;;;19.53;;
3487;SDS011;38546;48.170;11.724;2023-05-23T05:08:41;27.90;;;16.73;;
3487;SDS011;38546;48.170;11.724;2023-05-23T05:11:31;30.37;;;18.73;;
3487;SDS011;38546;48.170;11.724;2023-05-23T05:14:20;27.90;;;17.13;;
3487;SDS011;38546;48.170;11.724;2023-05-23T05:17:10;30.63;;;19.20;;
3487;SDS011;38546;48.170;11.724;2023-05-23T05:19:59;23.30;;;16.70;;
3487;SDS011;38546;48.170;11.724;2023-05-23T05:22:54;30.83;;;18.73;;
3487;SDS011;38546;48.170;11.724;2023-05-23T05:25:47;33.47;;;19.73;;
3487;SDS011;38546;48.170;11.724;2023-05-23T05:28:36;36.43;;;19.40;;
3487;SDS011;38546;48.170;11.724;2023-05-23T05:31:25;34.20;;;20.10;;
3487;SDS011;38546;48.170;11.724;2023-05-23T05:34:15;34.10;;;19.03;;
3487;SDS011;38546;48.170;11.724;2023-05-23T05:37:05;33.50;;;18.63;;
3487;SDS011;38546;48.170;11.724;2023-05-23T05:39:54;32.23;;;19.77;;
3487;SDS011;38546;48.170;11.724;2023-05-23T05:42:44;35.77;;;18.50;;
3487;SDS011;38546;48.170;11.724;2023-05-23T05:45:33;33.80;;;18.83;;
3487;SDS011;38546;48.170;11.724;2023-05-23T05:48:22;33.23;;;19.53;;
3487;SDS011;38546;48.170;11.724;2023-05-23T05:51:12;35.63;;;18.93;;
3487;SDS011;38546;48.170;11.724;2023-05-23T05:54:01;35.33;;;18.97;;
3487;SDS011;38546;48.170;11.724;2023-05-23T05:56:50;31.33;;;18.70;;
3487;SDS011;38546;48.170;11.724;2023-05-23T05:59:39;32.50;;;17.93;;
3487;SDS011;38546;48.170;11.724;2023-05-23T06:02:29;30.77;;;19.53;;
3487;SDS011;38546;48.170;11.724;2023-05-23T06:05:18;32.73;;;19.50;;
3487;SDS011;38546;48.170;11.724;2023-05-23T06:08:08;38.60;;;20.10;;
3487;SDS011;38546;48.170;11.724;2023-05-23T06:10:58;29.07;;;19.07;;
3487;SDS011;38546;48.170;11.724;2023-05-23T06:13:47;37.77;;;20.27;;
3487;SDS011;38546;48.170;11.724;2023-05-23T06:16:36;29.63;;;18.80;;
3487;SDS011;38546;48.170;11.724;2023-05-23T06:19:26;29.97;;;18.53;;
3487;SDS011;38546;48.170;11.724;2023-05-23T06:22:15;28.83;;;19.77;;
3487;SDS011;38546;48.170;11.724;2023-05-23T06:25:05;28.37;;;18.73;;
3487;SDS011;38546;48.170;11.724;2023-05-23T06:27:55;35.63;;;20.60;;
3487;SDS011;38546;48.170;11.724;2023-05-23T06:30:44;28.90;;;18.70;;
3487;SDS011;38546;48.170;11.724;2023-05-23T06:33:33;30.43;;;19.10;;
3487;SDS011;38546;48.170;11.724;2023-05-23T06:36:21;32.07;;;19.80;;
3487;SDS011;38546;48.170;11.724;2023-05-23T06:39:10;35.03;;;18.33;;
3487;SDS011;38546;48.170;11.724;2023-05-23T06:41:59;34.33;;;19.73;;
3487;SDS011;38546;48.170;11.724;2023-05-23T06:44:49;32.40;;;17.77;;
3487;SDS011;38546;48.170;11.724;2023-05-23T06:47:38;30.00;;;18.50;;
3487;SDS011;38546;48.170;11.724;2023-05-23T06:50:30;32.80;;;18.90;;
3487;SDS011;38546;48.170;11.724;2023-05-23T06:53:19;37.50;;;20.63;;
3487;SDS011;38546;48.170;11.724;2023-05-23T06:56:09;30.80;;;18.57;;
3487;SDS011;38546;48.170;11.724;2023-05-23T06:58:58;33.57;;;20.57;;
3487;SDS011;38546;48.170;11.724;2023-05-23T07:01:47;31.30;;;19.20;;
3487;SDS011;38546;48.170;11.724;2023-05-23T07:04:36;31.30;;;19.03;;
3487;SDS011;38546;48.170;11.724;2023-05-23T07:07:25;31.77;;;19.20;;
3487;SDS011;38546;48.170;11.724;2023-05-23T07:10:13;35.03;;;21.43;;
3487;SDS011;38546;48.170;11.724;2023-05-23T07:13:03;30.73;;;18.50;;
3487;SDS011;38546;48.170;11.724;2023-05-23T07:15:52;31.27;;;19.30;;
3487;SDS011;38546;48.170;11.724;2023-05-23T07:18:41;34.67;;;19.73;;
3487;SDS011;38546;48.170;11.724;2023-05-23T07:21:30;37.17;;;20.00;;
3487;SDS011;38546;48.170;11.724;2023-05-23T07:24:19;36.37;;;21.30;;
3487;SDS011;38546;48.170;11.724;2023-05-23T07:27:08;34.63;;;22.27;;
3487;SDS011;38546;48.170;11.724;2023-05-23T07:29:57;31.53;;;19.23;;
3487;SDS011;38546;48.170;11.724;2023-05-23T07:32:47;37.00;;;22.60;;
3487;SDS011;38546;48.170;11.724;2023-05-23T07:35:36;34.10;;;18.67;;
3487;SDS011;38546;48.170;11.724;2023-05-23T07:38:25;33.03;;;20.03;;
3487;SDS011;38546;48.170;11.724;2023-05-23T07:41:14;36.20;;;21.33;;
3487;SDS011;38546;48.170;11.724;2023-05-23T07:44:03;38.80;;;21.23;;
3487;SDS011;38546;48.170;11.724;2023-05-23T07:46:52;35.90;;;20.70;;
3487;SDS011;38546;48.170;11.724;2023-05-23T07:49:42;37.87;;;19.90;;
3487;SDS011;38546;48.170;11.724;2023-05-23T07:52:32;37.87;;;22.67;;
3487;SDS011;38546;48.170;11.724;2023-05-23T07:55:21;33.00;;;21.30;;
3487;SDS011;38546;48.170;11.724;2023-05-23T07:58:11;32.23;;;19.57;;
3487;SDS011;38546;48.170;11.724;2023-05-23T08:01:00;38.67;;;22.03;;
3487;SDS011;38546;48.170;11.724;2023-05-23T08:03:50;39.10;;;20.70;;
3487;SDS011;38546;48.170;11.724;2023-05-23T08:06:40;35.27;;;21.43;;
3487;SDS011;38546;48.170;11.724;2023-05-23T08:09:29;33.73;;;21.90;;
3487;SDS011;38546;48.170;11.724;2023-05-23T08:12:18;33.17;;;20.73;;
3487;SDS011;38546;48.170;11.724;2023-05-23T08:15:08;35.50;;;21.30;;
3487;SDS011;38546;48.170;11.724;2023-05-23T08:17:59;32.23;;;21.87;;
3487;SDS011;38546;48.170;11.724;2023-05-23T08:20:48;35.90;;;21.97;;
3487;SDS011;38546;48.170;11.724;2023-05-23T08:23:37;33.43;;;22.23;;
3487;SDS011;38546;48.170;11.724;2023-05-23T08:26:26;34.37;;;21.13;;
3487;SDS011;38546;48.170;11.724;2023-05-23T08:29:21;37.07;;;22.37;;
3487;SDS011;38546;48.170;11.724;2023-05-23T08:32:11;36.57;;;20.80;;
3487;SDS011;38546;48.170;11.724;2023-05-23T08:35:00;33.03;;;21.03;;
3487;SDS011;38546;48.170;11.724;2023-05-23T08:37:49;37.57;;;22.17;;
3487;SDS011;38546;48.170;11.724;2023-05-23T08:40:39;33.60;;;22.93;;
3487;SDS011;38546;48.170;11.724;2023-05-23T08:43:30;40.50;;;23.63;;
3487;SDS011;38546;48.170;11.724;2023-05-23T08:46:19;37.53;;;22.83;;
3487;SDS011;38546;48.170;11.724;2023-05-23T08:49:11;36.13;;;21.80;;
3487;SDS011;38546;48.170;11.724;2023-05-23T08:52:06;39.10;;;22.93;;
3487;SDS011;38546;48.170;11.724;2023-05-23T08:55:00;41.70;;;22.90;;
3487;SDS011;38546;48.170;11.724;2023-05-23T08:57:50;40.50;;;23.77;;
3487;SDS011;38546;48.170;11.724;2023-05-23T09:00:41;43.53;;;25.93;;
3487;SDS011;38546;48.170;11.724;2023-05-23T09:03:31;40.73;;;23.90;;
3487;SDS011;38546;48.170;11.724;2023-05-23T09:06:21;45.00;;;24.87;;
3487;SDS011;38546;48.170;11.724;2023-05-23T09:09:11;38.23;;;24.00;;
3487;SDS011;38546;48.170;11.724;2023-05-23T09:12:00;36.70;;;24.10;;
3487;SDS011;38546;48.170;11.724;2023-05-23T09:14:51;34.00;;;22.07;;
3487;SDS011;38546;48.170;11.724;2023-05-23T09:17:40;41.30;;;23.70;;
3487;SDS011;38546;48.170;11.724;2023-05-23T09:20:30;38.80;;;23.47;;
3487;SDS011;38546;48.170;11.724;2023-05-23T09:23:19;40.53;;;22.53;;
3487;SDS011;38546;48.170;11.724;2023-05-23T09:26:10;33.97;;;21.43;;
3487;SDS011;38546;48.170;11.724;2023-05-23T09:29:03;33.20;;;22.50;;
3487;SDS011;38546;48.170;11.724;2023-05-23T09:32:09;33.10;;;21.93;;
3487;SDS011;38546;48.170;11.724;2023-05-23T09:35:04;34.50;;;23.13;;
3487;SDS011;38546;48.170;11.724;2023-05-23T09:37:55;35.73;;;22.40;;
3487;SDS011;38546;48.170;11.724;2023-05-23T09:40:48;40.47;;;22.73;;
3487;SDS011;38546;48.170;11.724;2023-05-23T09:43:50;35.70;;;22.53;;
3487;SDS011;38546;48.170;11.724;2023-05-23T09:46:41;38.53;;;24.63;;
3487;SDS011;38546;48.170;11.724;2023-05-23T09:49:30;34.20;;;22.60;;
3487;SDS011;38546;48.170;11.724;2023-05-23T09:52:19;36.70;;;21.23;;
3487;SDS011;38546;48.170;11.724;2023-05-23T09:55:09;32.47;;;21.73;;
3487;SDS011;38546;48.170;11.724;2023-05-23T09:57:58;30.10;;;20.43;;
3487;SDS011;38546;48.170;11.724;2023-05-23T10:00:49;40.33;;;23.57;;
3487;SDS011;38546;48.170;11.724;2023-05-23T10:03:47;36.40;;;22.27;;
3487;SDS011;38546;48.170;11.724;2023-05-23T10:06:43;35.40;;;21.80;;
3487;SDS011;38546;48.170;11.724;2023-05-23T10:09:41;34.40;;;22.17;;
3487;SDS011;38546;48.170;11.724;2023-05-23T10:12:43;33.97;;;22.00;;
3487;SDS011;38546;48.170;11.724;2023-05-23T10:15:43;35.23;;;21.60;;
3487;SDS011;38546;48.170;11.724;2023-05-23T10:18:33;36.63;;;22.57;;
3487;SDS011;38546;48.170;11.724;2023-05-23T10:21:34;31.60;;;21.30;;
3487;SDS011;38546;48.170;11.724;2023-05-23T10:24:29;33.23;;;22.30;;
3487;SDS011;38546;48.170;11.724;2023-05-23T10:27:18;33.27;;;21.60;;
3487;SDS011;38546;48.170;11.724;2023-05-23T10:30:08;37.97;;;23.70;;
3487;SDS011;38546;48.170;11.724;2023-05-23T10:32:59;33.83;;;21.77;;
3487;SDS011;38546;48.170;11.724;2023-05-23T10:35:58;38.30;;;20.73;;
3487;SDS011;38546;48.170;11.724;2023-05-23T10:39:13;34.03;;;21.17;;
3487;SDS011;38546;48.170;11.724;2023-05-23T10:42:58;33.17;;;20.07;;
3487;SDS011;38546;48.170;11.724;2023-05-23T10:48:31;32.57;;;20.87;;
3487;SDS011;38546;48.170;11.724;2023-05-23T10:51:36;35.60;;;21.13;;
3487;SDS011;38546;48.170;11.724;2023-05-23T10:54:26;37.10;;;20.90;;
3487;SDS011;38546;48.170;11.724;2023-05-23T10:57:26;31.87;;;20.10;;
3487;SDS011;38546;48.170;11.724;2023-05-23T11:00:16;36.47;;;22.93;;
3487;SDS011;38546;48.170;11.724;2023-05-23T11:03:06;41.57;;;21.30;;
3487;SDS011;38546;48.170;11.724;2023-05-23T11:05:56;35.47;;;22.43;;
3487;SDS011;38546;48.170;11.724;2023-05-23T11:08:45;29.80;;;20.73;;
3487;SDS011;38546;48.170;11.724;2023-05-23T11:17:15;31.50;;;20.30;;
3487;SDS011;38546;48.170;11.724;2023-05-23T11:20:06;31.60;;;20.17;;
3487;SDS011;38546;48.170;11.724;2023-05-23T11:23:01;32.20;;;19.30;;
3487;SDS011;38546;48.170;11.724;2023-05-23T11:25:55;35.63;;;19.33;;
3487;SDS011;38546;48.170;11.724;2023-05-23T11:28:54;26.70;;;16.63;;
3487;SDS011;38546;48.170;11.724;2023-05-23T11:31:45;28.20;;;17.30;;
3487;SDS011;38546;48.170;11.724;2023-05-23T11:34:34;25.10;;;16.20;;
3487;SDS011;38546;48.170;11.724;2023-05-23T11:37:27;23.23;;;15.97;;
3487;SDS011;38546;48.170;11.724;2023-05-23T11:40:24;23.60;;;16.20;;
3487;SDS011;38546;48.170;11.724;2023-05-23T11:43:19;23.60;;;17.00;;
3487;SDS011;38546;48.170;11.724;2023-05-23T11:46:08;23.77;;;17.20;;
3487;SDS011;38546;48.170;11.724;2023-05-23T11:48:58;25.93;;;16.27;;
3487;SDS011;38546;48.170;11.724;2023-05-23T11:51:47;28.90;;;18.90;;
3487;SDS011;38546;48.170;11.724;2023-05-23T11:54:36;26.67;;;17.47;;
3487;SDS011;38546;48.170;11.724;2023-05-23T11:57:29;24.53;;;17.27;;
3487;SDS011;38546;48.170;11.724;2023-05-23T12:00:19;23.83;;;16.80;;
3487;SDS011;38546;48.170;11.724;2023-05-23T12:03:08;24.73;;;17.70;;
3487;SDS011;38546;48.170;11.724;2023-05-23T12:05:59;24.40;;;17.13;;
3487;SDS011;38546;48.170;11.724;2023-05-23T12:08:52;22.93;;;16.70;;
3487;SDS011;38546;48.170;11.724;2023-05-23T12:11:41;23.10;;;14.40;;
3487;SDS011;38546;48.170;11.724;2023-05-23T12:14:32;23.00;;;15.53;;
3487;SDS011;38546;48.170;11.724;2023-05-23T12:17:22;23.53;;;15.93;;
3487;SDS011;38546;48.170;11.724;2023-05-23T12:20:12;26.63;;;16.67;;
3487;SDS011;38546;48.170;11.724;2023-05-23T12:23:04;25.70;;;15.93;;
3487;SDS011;38546;48.170;11.724;2023-05-23T12:25:54;22.30;;;15.40;;
3487;SDS011;38546;48.170;11.724;2023-05-23T12:28:44;19.50;;;13.67;;
3487;SDS011;38546;48.170;11.724;2023-05-23T12:31:34;28.13;;;17.10;;
3487;SDS011;38546;48.170;11.724;2023-05-23T12:34:23;25.33;;;17.67;;
3487;SDS011;38546;48.170;11.724;2023-05-23T12:37:13;26.53;;;16.10;;
3487;SDS011;38546;48.170;11.724;2023-05-23T12:40:16;26.57;;;16.70;;
3487;SDS011;38546;48.170;11.724;2023-05-23T12:43:07;25.57;;;16.77;;
3487;SDS011;38546;48.170;11.724;2023-05-23T12:45:58;23.03;;;14.00;;
3487;SDS011;38546;48.170;11.724;2023-05-23T12:48:47;19.10;;;15.50;;
3487;SDS011;38546;48.170;11.724;2023-05-23T12:51:37;20.83;;;15.47;;
3487;SDS011;38546;48.170;11.724;2023-05-23T12:54:27;25.17;;;15.50;;
3487;SDS011;38546;48.170;11.724;2023-05-23T12:57:16;28.60;;;15.60;;
3487;SDS011;38546;48.170;11.724;2023-05-23T13:00:06;28.13;;;14.20;;
3487;SDS011;38546;48.170;11.724;2023-05-23T13:02:57;21.07;;;15.00;;
3487;SDS011;38546;48.170;11.724;2023-05-23T13:05:46;23.83;;;13.53;;
3487;SDS011;38546;48.170;11.724;2023-05-23T13:08:35;18.97;;;12.80;;
3487;SDS011;38546;48.170;11.724;2023-05-23T13:11:25;22.30;;;15.80;;
3487;SDS011;38546;48.170;11.724;2023-05-23T13:14:15;21.40;;;14.93;;
3487;SDS011;38546;48.170;11.724;2023-05-23T13:17:04;20.67;;;15.37;;
3487;SDS011;38546;48.170;11.724;2023-05-23T13:19:54;22.73;;;15.40;;
3487;SDS011;38546;48.170;11.724;2023-05-23T13:22:44;22.27;;;15.20;;
3487;SDS011;38546;48.170;11.724;2023-05-23T13:25:34;21.30;;;15.23;;
3487;SDS011;38546;48.170;11.724;2023-05-23T13:28:23;25.30;;;15.60;;
3487;SDS011;38546;48.170;11.724;2023-05-23T13:31:12;18.47;;;14.00;;
3487;SDS011;38546;48.170;11.724;2023-05-23T13:34:01;24.27;;;15.10;;
3487;SDS011;38546;48.170;11.724;2023-05-23T13:36:50;22.40;;;13.90;;
3487;SDS011;38546;48.170;11.724;2023-05-23T13:39:40;15.33;;;13.50;;
3487;SDS011;38546;48.170;11.724;2023-05-23T13:42:30;19.33;;;14.27;;
3487;SDS011;38546;48.170;11.724;2023-05-23T13:45:20;19.23;;;14.37;;
3487;SDS011;38546;48.170;11.724;2023-05-23T13:48:10;18.33;;;14.60;;
3487;SDS011;38546;48.170;11.724;2023-05-23T13:51:00;21.30;;;14.60;;
3487;SDS011;38546;48.170;11.724;2023-05-23T13:53:50;19.83;;;15.30;;
3487;SDS011;38546;48.170;11.724;2023-05-23T13:56:39;18.90;;;14.40;;
3487;SDS011;38546;48.170;11.724;2023-05-23T13:59:28;19.03;;;15.07;;
3487;SDS011;38546;48.170;11.724;2023-05-23T14:02:18;19.33;;;14.27;;
3487;SDS011;38546;48.170;11.724;2023-05-23T14:05:09;19.80;;;13.70;;
3487;SDS011;38546;48.170;11.724;2023-05-23T14:07:58;23.40;;;15.33;;
3487;SDS011;38546;48.170;11.724;2023-05-23T14:10:48;18.73;;;13.90;;
3487;SDS011;38546;48.170;11.724;2023-05-23T14:13:38;18.00;;;13.50;;
3487;SDS011;38546;48.170;11.724;2023-05-23T14:16:27;20.40;;;14.40;;
3487;SDS011;38546;48.170;11.724;2023-05-23T14:19:17;18.50;;;14.10;;
3487;SDS011;38546;48.170;11.724;2023-05-23T14:22:07;20.30;;;12.83;;
3487;SDS011;38546;48.170;11.724;2023-05-23T14:24:56;16.43;;;12.67;;
3487;SDS011;38546;48.170;11.724;2023-05-23T14:27:46;19.03;;;13.83;;
3487;SDS011;38546;48.170;11.724;2023-05-23T14:30:35;16.63;;;12.20;;
3487;SDS011;38546;48.170;11.724;2023-05-23T14:33:25;18.53;;;13.33;;
3487;SDS011;38546;48.170;11.724;2023-05-23T14:36:15;17.97;;;12.80;;
3487;SDS011;38546;48.170;11.724;2023-05-23T14:39:04;17.10;;;12.70;;
3487;SDS011;38546;48.170;11.724;2023-05-23T14:41:55;15.60;;;12.80;;
3487;SDS011;38546;48.170;11.724;2023-05-23T14:44:45;15.60;;;12.20;;
3487;SDS011;38546;48.170;11.724;2023-05-23T14:47:34;19.50;;;12.77;;
3487;SDS011;38546;48.170;11.724;2023-05-23T14:50:25;16.40;;;12.23;;
3487;SDS011;38546;48.170;11.724;2023-05-23T14:53:14;15.50;;;12.10;;
3487;SDS011;38546;48.170;11.724;2023-05-23T14:56:04;14.27;;;11.37;;
3487;SDS011;38546;48.170;11.724;2023-05-23T14:58:53;15.83;;;12.20;;
3487;SDS011;38546;48.170;11.724;2023-05-23T15:01:45;18.50;;;12.13;;
3487;SDS011;38546;48.170;11.724;2023-05-23T15:04:34;19.17;;;12.30;;
3487;SDS011;38546;48.170;11.724;2023-05-23T15:07:23;19.33;;;12.43;;
3487;SDS011;38546;48.170;11.724;2023-05-23T15:10:13;16.10;;;11.03;;
3487;SDS011;38546;48.170;11.724;2023-05-23T15:13:02;16.17;;;11.47;;
3487;SDS011;38546;48.170;11.724;2023-05-23T15:15:52;19.43;;;11.17;;
3487;SDS011;38546;48.170;11.724;2023-05-23T15:18:42;17.53;;;11.60;;
3487;SDS011;38546;48.170;11.724;2023-05-23T15:21:31;20.07;;;12.00;;
3487;SDS011;38546;48.170;11.724;2023-05-23T15:24:21;15.90;;;10.90;;
3487;SDS011;38546;48.170;11.724;2023-05-23T15:27:10;17.63;;;11.83;;
3487;SDS011;38546;48.170;11.724;2023-05-23T15:29:59;14.90;;;11.00;;
3487;SDS011;38546;48.170;11.724;2023-05-23T15:32:49;17.33;;;12.70;;
3487;SDS011;38546;48.170;11.724;2023-05-23T15:35:38;17.50;;;11.93;;
3487;SDS011;38546;48.170;11.724;2023-05-23T15:38:28;16.63;;;11.63;;
3487;SDS011;38546;48.170;11.724;2023-05-23T15:41:17;17.17;;;11.80;;
3487;SDS011;38546;48.170;11.724;2023-05-23T15:44:06;18.83;;;11.83;;
3487;SDS011;38546;48.170;11.724;2023-05-23T15:46:56;17.90;;;13.03;;
3487;SDS011;38546;48.170;11.724;2023-05-23T15:49:45;15.43;;;11.27;;
3487;SDS011;38546;48.170;11.724;2023-05-23T15:52:35;16.50;;;11.50;;
3487;SDS011;38546;48.170;11.724;2023-05-23T15:55:24;15.90;;;11.30;;
3487;SDS011;38546;48.170;11.724;2023-05-23T15:58:13;14.93;;;10.50;;
3487;SDS011;38546;48.170;11.724;2023-05-23T16:01:03;11.27;;;8.93;;
3487;SDS011;38546;48.170;11.724;2023-05-23T16:03:52;11.73;;;9.97;;
3487;SDS011;38546;48.170;11.724;2023-05-23T16:06:42;17.63;;;9.80;;
3487;SDS011;38546;48.170;11.724;2023-05-23T16:09:31;15.40;;;10.27;;
3487;SDS011;38546;48.170;11.724;2023-05-23T16:12:21;14.00;;;9.53;;
3487;SDS011;38546;48.170;11.724;2023-05-23T16:15:10;16.10;;;10.50;;
3487;SDS011;38546;48.170;11.724;2023-05-23T16:17:59;13.60;;;9.90;;
3487;SDS011;38546;48.170;11.724;2023-05-23T16:20:50;12.03;;;9.73;;
3487;SDS011;38546;48.170;11.724;2023-05-23T16:23:39;11.80;;;9.10;;
3487;SDS011;38546;48.170;11.724;2023-05-23T16:26:28;15.17;;;9.93;;
3487;SDS011;38546;48.170;11.724;2023-05-23T16:29:18;14.13;;;9.40;;
3487;SDS011;38546;48.170;11.724;2023-05-23T16:32:07;17.00;;;9.83;;
3487;SDS011;38546;48.170;11.724;2023-05-23T16:34:57;14.07;;;8.80;;
3487;SDS011;38546;48.170;11.724;2023-05-23T16:37:46;14.43;;;8.90;;
3487;SDS011;38546;48.170;11.724;2023-05-23T16:40:36;11.53;;;8.30;;
3487;SDS011;38546;48.170;11.724;2023-05-23T16:43:25;10.40;;;8.07;;
3487;SDS011;38546;48.170;11.724;2023-05-23T16:46:14;11.77;;;7.20;;
3487;SDS011;38546;48.170;11.724;2023-05-23T16:49:03;8.70;;;6.13;;
3487;SDS011;38546;48.170;11.724;2023-05-23T16:51:53;7.57;;;5.93;;
3487;SDS011;38546;48.170;11.724;2023-05-23T16:54:42;6.80;;;5.90;;